sensor_id;sensor_type;location;lat;lon;timestamp;temperature;humidity
66096;SHT31;53861;53.422;14.530;2024-01-15T00:01:42;1.95;95.95
66096;SHT31;53861;53.422;14.530;2024-01-15T00:04:09;2.05;95.88
66096;SHT31;53861;53.422;14.530;2024-01-15T00:06:36;1.97;95.81
66096;SHT31;53861;53.422;14.530;2024-01-15T00:09:04;1.99;95.87
66096;SHT31;53861;53.422;14.530;2024-01-15T00:11:32;1.94;95.99
66096;SHT31;53861;53.422;14.530;2024-01-15T00:13:59;1.94;95.85
66096;SHT31;53861;53.422;14.530;2024-01-15T00:16:28;1.98;95.98
66096;SHT31;53861;53.422;14.530;2024-01-15T00:36:38;1.89;96.36
66096;SHT31;53861;53.422;14.530;2024-01-15T00:39:05;1.84;96.61
66096;SHT31;53861;53.422;14.530;2024-01-15T00:41:33;1.78;96.71
66096;SHT31;53861;53.422;14.530;2024-01-15T00:44:00;1.82;96.75
66096;SHT31;53861;53.422;14.530;2024-01-15T00:46:28;1.77;96.81
66096;SHT31;53861;53.422;14.530;2024-01-15T00:48:56;1.74;96.91
66096;SHT31;53861;53.422;14.530;2024-01-15T00:51:23;1.61;97.17
66096;SHT31;53861;53.422;14.530;2024-01-15T00:53:52;1.67;97.22
66096;SHT31;53861;53.422;14.530;2024-01-15T00:56:19;1.71;97.07
66096;SHT31;53861;53.422;14.530;2024-01-15T00:58:46;1.77;97.02
66096;SHT31;53861;53.422;14.530;2024-01-15T01:01:13;1.71;97.20
66096;SHT31;53861;53.422;14.530;2024-01-15T01:03:41;1.74;97.20
66096;SHT31;53861;53.422;14.530;2024-01-15T01:06:08;1.75;97.03
66096;SHT31;53861;53.422;14.530;2024-01-15T01:08:35;1.68;97.21
66096;SHT31;53861;53.422;14.530;2024-01-15T01:11:04;1.57;97.33
66096;SHT31;53861;53.422;14.530;2024-01-15T01:13:32;1.53;97.63
66096;SHT31;53861;53.422;14.530;2024-01-15T01:16:00;1.53;97.90
66096;SHT31;53861;53.422;14.530;2024-01-15T01:18:27;1.50;97.85
66096;SHT31;53861;53.422;14.530;2024-01-15T01:20:54;1.44;97.92
66096;SHT31;53861;53.422;14.530;2024-01-15T01:23:22;1.43;97.98
66096;SHT31;53861;53.422;14.530;2024-01-15T01:25:49;1.46;97.63
66096;SHT31;53861;53.422;14.530;2024-01-15T01:28:18;1.41;97.40
66096;SHT31;53861;53.422;14.530;2024-01-15T01:30:45;1.44;96.88
66096;SHT31;53861;53.422;14.530;2024-01-15T01:33:12;1.47;97.10
66096;SHT31;53861;53.422;14.530;2024-01-15T01:35:39;1.51;97.48
66096;SHT31;53861;53.422;14.530;2024-01-15T01:38:07;1.54;97.42
66096;SHT31;53861;53.422;14.530;2024-01-15T01:40:34;1.51;97.35
66096;SHT31;53861;53.422;14.530;2024-01-15T01:43:02;1.50;97.43
66096;SHT31;53861;53.422;14.530;2024-01-15T01:45:31;1.48;97.30
66096;SHT31;53861;53.422;14.530;2024-01-15T01:47:59;1.44;97.12
66096;SHT31;53861;53.422;14.530;2024-01-15T01:50:27;1.54;97.25
66096;SHT31;53861;53.422;14.530;2024-01-15T01:52:55;1.55;96.94
66096;SHT31;53861;53.422;14.530;2024-01-15T02:08:53;1.09;96.38
66096;SHT31;53861;53.422;14.530;2024-01-15T02:11:20;1.03;95.94
66096;SHT31;53861;53.422;14.530;2024-01-15T02:13:47;0.95;95.97
66096;SHT31;53861;53.422;14.530;2024-01-15T02:16:15;0.93;96.06
66096;SHT31;53861;53.422;14.530;2024-01-15T02:18:43;0.88;95.89
66096;SHT31;53861;53.422;14.530;2024-01-15T02:21:11;0.82;96.21
66096;SHT31;53861;53.422;14.530;2024-01-15T02:23:40;0.80;95.88
66096;SHT31;53861;53.422;14.530;2024-01-15T02:26:09;0.75;96.07
66096;SHT31;53861;53.422;14.530;2024-01-15T02:28:36;0.73;95.71
66096;SHT31;53861;53.422;14.530;2024-01-15T02:31:03;0.66;96.14
66096;SHT31;53861;53.422;14.530;2024-01-15T02:33:31;0.64;95.88
66096;SHT31;53861;53.422;14.530;2024-01-15T02:35:58;0.65;95.96
66096;SHT31;53861;53.422;14.530;2024-01-15T02:38:25;0.75;95.86
66096;SHT31;53861;53.422;14.530;2024-01-15T02:40:54;0.82;95.99
66096;SHT31;53861;53.422;14.530;2024-01-15T02:43:21;0.88;95.70
66096;SHT31;53861;53.422;14.530;2024-01-15T02:45:49;0.96;95.46
66096;SHT31;53861;53.422;14.530;2024-01-15T02:48:16;1.00;95.38
66096;SHT31;53861;53.422;14.530;2024-01-15T02:50:43;1.06;95.24
66096;SHT31;53861;53.422;14.530;2024-01-15T02:53:11;1.12;95.18
66096;SHT31;53861;53.422;14.530;2024-01-15T02:55:38;1.15;94.94
66096;SHT31;53861;53.422;14.530;2024-01-15T02:58:07;1.12;94.73
66096;SHT31;53861;53.422;14.530;2024-01-15T03:00:34;1.09;94.54
66096;SHT31;53861;53.422;14.530;2024-01-15T03:03:02;1.04;94.38
66096;SHT31;53861;53.422;14.530;2024-01-15T03:05:29;1.03;94.75
66096;SHT31;53861;53.422;14.530;2024-01-15T03:07:56;0.99;94.55
66096;SHT31;53861;53.422;14.530;2024-01-15T03:10:23;0.90;94.80
66096;SHT31;53861;53.422;14.530;2024-01-15T03:12:51;0.86;94.86
66096;SHT31;53861;53.422;14.530;2024-01-15T03:15:19;0.82;95.23
66096;SHT31;53861;53.422;14.530;2024-01-15T03:17:47;0.80;95.08
66096;SHT31;53861;53.422;14.530;2024-01-15T03:20:14;0.76;95.46
66096;SHT31;53861;53.422;14.530;2024-01-15T03:22:41;0.75;95.07
66096;SHT31;53861;53.422;14.530;2024-01-15T03:25:08;0.75;95.29
66096;SHT31;53861;53.422;14.530;2024-01-15T03:27:36;0.86;95.49
66096;SHT31;53861;53.422;14.530;2024-01-15T03:30:03;0.92;95.22
66096;SHT31;53861;53.422;14.530;2024-01-15T03:32:32;0.97;95.08
66096;SHT31;53861;53.422;14.530;2024-01-15T03:34:59;1.07;95.33
66096;SHT31;53861;53.422;14.530;2024-01-15T03:37:27;1.15;95.08
66096;SHT31;53861;53.422;14.530;2024-01-15T03:39:54;1.17;95.05
66096;SHT31;53861;53.422;14.530;2024-01-15T03:42:22;1.20;94.39
66096;SHT31;53861;53.422;14.530;2024-01-15T03:44:49;1.27;94.71
66096;SHT31;53861;53.422;14.530;2024-01-15T03:47:16;1.29;94.91
66096;SHT31;53861;53.422;14.530;2024-01-15T03:49:45;1.29;94.91
66096;SHT31;53861;53.422;14.530;2024-01-15T03:52:12;1.27;94.83
66096;SHT31;53861;53.422;14.530;2024-01-15T03:54:40;1.29;94.97
66096;SHT31;53861;53.422;14.530;2024-01-15T03:57:07;1.30;95.60
66096;SHT31;53861;53.422;14.530;2024-01-15T03:59:34;1.33;95.45
66096;SHT31;53861;53.422;14.530;2024-01-15T04:02:02;1.24;95.90
66096;SHT31;53861;53.422;14.530;2024-01-15T04:04:29;1.19;96.14
66096;SHT31;53861;53.422;14.530;2024-01-15T04:06:58;1.22;96.27
66096;SHT31;53861;53.422;14.530;2024-01-15T04:09:25;1.27;96.01
66096;SHT31;53861;53.422;14.530;2024-01-15T04:11:52;1.26;95.89
66096;SHT31;53861;53.422;14.530;2024-01-15T04:14:20;1.27;95.49
66096;SHT31;53861;53.422;14.530;2024-01-15T04:16:47;1.26;95.36
66096;SHT31;53861;53.422;14.530;2024-01-15T04:19:14;1.36;95.21
66096;SHT31;53861;53.422;14.530;2024-01-15T04:21:41;1.39;95.08
66096;SHT31;53861;53.422;14.530;2024-01-15T04:24:11;1.39;94.76
66096;SHT31;53861;53.422;14.530;2024-01-15T04:26:43;1.40;94.90
66096;SHT31;53861;53.422;14.530;2024-01-15T04:29:11;1.44;94.73
66096;SHT31;53861;53.422;14.530;2024-01-15T04:31:38;1.43;94.73
66096;SHT31;53861;53.422;14.530;2024-01-15T04:34:05;1.44;94.77
66096;SHT31;53861;53.422;14.530;2024-01-15T04:36:38;1.46;94.71
66096;SHT31;53861;53.422;14.530;2024-01-15T04:39:06;1.43;94.80
66096;SHT31;53861;53.422;14.530;2024-01-15T04:41:34;1.53;94.77
66096;SHT31;53861;53.422;14.530;2024-01-15T04:44:02;1.53;95.07
66096;SHT31;53861;53.422;14.530;2024-01-15T04:46:29;1.47;95.37
66096;SHT31;53861;53.422;14.530;2024-01-15T04:48:56;1.43;95.94
66096;SHT31;53861;53.422;14.530;2024-01-15T04:51:23;1.41;95.55
66096;SHT31;53861;53.422;14.530;2024-01-15T04:53:51;1.40;95.59
66096;SHT31;53861;53.422;14.530;2024-01-15T04:56:18;1.41;95.53
66096;SHT31;53861;53.422;14.530;2024-01-15T04:58:47;1.43;95.56
66096;SHT31;53861;53.422;14.530;2024-01-15T05:01:15;1.48;95.37
66096;SHT31;53861;53.422;14.530;2024-01-15T05:03:43;1.48;95.50
66096;SHT31;53861;53.422;14.530;2024-01-15T05:06:10;1.44;95.30
66096;SHT31;53861;53.422;14.530;2024-01-15T05:08:37;1.40;95.11
66096;SHT31;53861;53.422;14.530;2024-01-15T05:11:04;1.37;95.19
66096;SHT31;53861;53.422;14.530;2024-01-15T05:13:31;1.39;95.31
66096;SHT31;53861;53.422;14.530;2024-01-15T05:16:00;1.41;94.75
66096;SHT31;53861;53.422;14.530;2024-01-15T05:18:27;1.37;94.38
66096;SHT31;53861;53.422;14.530;2024-01-15T05:20:55;1.39;94.06
66096;SHT31;53861;53.422;14.530;2024-01-15T05:23:22;1.34;94.07
66096;SHT31;53861;53.422;14.530;2024-01-15T05:25:49;1.40;93.68
66096;SHT31;53861;53.422;14.530;2024-01-15T05:28:17;1.40;93.01
66096;SHT31;53861;53.422;14.530;2024-01-15T05:30:44;1.44;93.41
66096;SHT31;53861;53.422;14.530;2024-01-15T05:33:13;1.46;92.84
66096;SHT31;53861;53.422;14.530;2024-01-15T05:35:40;1.50;93.30
66096;SHT31;53861;53.422;14.530;2024-01-15T05:38:07;1.51;92.94
66096;SHT31;53861;53.422;14.530;2024-01-15T05:40:34;1.46;93.11
66096;SHT31;53861;53.422;14.530;2024-01-15T05:43:02;1.43;93.13
66096;SHT31;53861;53.422;14.530;2024-01-15T05:45:30;1.48;92.95
66096;SHT31;53861;53.422;14.530;2024-01-15T05:47:57;1.46;92.96
66096;SHT31;53861;53.422;14.530;2024-01-15T05:50:26;1.44;92.43
66096;SHT31;53861;53.422;14.530;2024-01-15T05:52:53;1.47;92.44
66096;SHT31;53861;53.422;14.530;2024-01-15T05:55:20;1.50;92.01
66096;SHT31;53861;53.422;14.530;2024-01-15T05:57:47;1.51;91.97
66096;SHT31;53861;53.422;14.530;2024-01-15T06:00:15;1.55;90.93
66096;SHT31;53861;53.422;14.530;2024-01-15T06:02:43;1.60;90.75
66096;SHT31;53861;53.422;14.530;2024-01-15T06:05:10;1.61;90.68
66096;SHT31;53861;53.422;14.530;2024-01-15T06:07:39;1.61;90.98
66096;SHT31;53861;53.422;14.530;2024-01-15T06:10:07;1.64;90.97
66096;SHT31;53861;53.422;14.530;2024-01-15T06:12:35;1.61;91.13
66096;SHT31;53861;53.422;14.530;2024-01-15T06:15:02;1.61;91.34
66096;SHT31;53861;53.422;14.530;2024-01-15T06:17:30;1.61;91.95
66096;SHT31;53861;53.422;14.530;2024-01-15T06:19:57;1.68;92.59
66096;SHT31;53861;53.422;14.530;2024-01-15T06:22:24;1.64;93.17
66096;SHT31;53861;53.422;14.530;2024-01-15T06:24:53;1.60;94.74
66096;SHT31;53861;53.422;14.530;2024-01-15T06:27:21;1.50;95.74
66096;SHT31;53861;53.422;14.530;2024-01-15T06:29:49;1.41;96.53
66096;SHT31;53861;53.422;14.530;2024-01-15T06:32:16;1.39;96.53
66096;SHT31;53861;53.422;14.530;2024-01-15T06:34:43;1.37;96.69
66096;SHT31;53861;53.422;14.530;2024-01-15T06:37:10;1.39;96.65
66096;SHT31;53861;53.422;14.530;2024-01-15T06:39:38;1.31;96.96
66096;SHT31;53861;53.422;14.530;2024-01-15T06:42:06;1.16;97.64
66096;SHT31;53861;53.422;14.530;2024-01-15T06:44:34;1.20;97.31
66096;SHT31;53861;53.422;14.530;2024-01-15T06:47:01;1.15;97.48
66096;SHT31;53861;53.422;14.530;2024-01-15T06:49:29;1.16;97.25
66096;SHT31;53861;53.422;14.530;2024-01-15T06:51:56;1.19;97.11
66096;SHT31;53861;53.422;14.530;2024-01-15T06:54:23;1.09;97.60
66096;SHT31;53861;53.422;14.530;2024-01-15T06:56:52;0.93;97.36
66096;SHT31;53861;53.422;14.530;2024-01-15T06:59:21;0.86;97.94
66096;SHT31;53861;53.422;14.530;2024-01-15T07:01:48;0.82;97.77
66096;SHT31;53861;53.422;14.530;2024-01-15T07:04:16;0.79;97.03
66096;SHT31;53861;53.422;14.530;2024-01-15T07:06:43;0.76;96.89
66096;SHT31;53861;53.422;14.530;2024-01-15T07:09:11;0.78;96.66
66096;SHT31;53861;53.422;14.530;2024-01-15T07:11:38;0.72;96.66
66096;SHT31;53861;53.422;14.530;2024-01-15T07:14:10;0.72;96.70
66096;SHT31;53861;53.422;14.530;2024-01-15T07:16:39;0.75;96.62
66096;SHT31;53861;53.422;14.530;2024-01-15T07:19:06;0.78;96.13
66096;SHT31;53861;53.422;14.530;2024-01-15T07:21:34;0.83;95.48
66096;SHT31;53861;53.422;14.530;2024-01-15T07:24:01;0.90;95.55
66096;SHT31;53861;53.422;14.530;2024-01-15T07:26:30;0.99;94.07
66096;SHT31;53861;53.422;14.530;2024-01-15T07:28:57;1.10;94.46
66096;SHT31;53861;53.422;14.530;2024-01-15T07:31:24;1.15;94.54
66096;SHT31;53861;53.422;14.530;2024-01-15T07:33:53;1.16;93.19
66096;SHT31;53861;53.422;14.530;2024-01-15T07:36:20;1.23;93.59
66096;SHT31;53861;53.422;14.530;2024-01-15T07:38:47;1.29;93.46
66096;SHT31;53861;53.422;14.530;2024-01-15T07:41:14;1.30;93.75
66096;SHT31;53861;53.422;14.530;2024-01-15T07:43:42;1.36;93.71
66096;SHT31;53861;53.422;14.530;2024-01-15T07:46:09;1.31;94.06
66096;SHT31;53861;53.422;14.530;2024-01-15T07:48:36;1.26;93.80
66096;SHT31;53861;53.422;14.530;2024-01-15T07:51:05;1.20;94.01
66096;SHT31;53861;53.422;14.530;2024-01-15T07:53:32;1.24;94.01
66096;SHT31;53861;53.422;14.530;2024-01-15T07:56:00;1.37;94.56
66096;SHT31;53861;53.422;14.530;2024-01-15T07:58:27;1.37;93.69
66096;SHT31;53861;53.422;14.530;2024-01-15T08:00:54;1.43;94.30
66096;SHT31;53861;53.422;14.530;2024-01-15T08:03:21;1.41;93.40
66096;SHT31;53861;53.422;14.530;2024-01-15T08:05:49;1.43;93.43
66096;SHT31;53861;53.422;14.530;2024-01-15T08:08:19;1.46;93.73
66096;SHT31;53861;53.422;14.530;2024-01-15T08:10:49;1.22;94.56
66096;SHT31;53861;53.422;14.530;2024-01-15T08:13:16;1.12;96.76
66096;SHT31;53861;53.422;14.530;2024-01-15T08:15:43;0.92;96.66
66096;SHT31;53861;53.422;14.530;2024-01-15T08:18:11;0.93;97.16
66096;SHT31;53861;53.422;14.530;2024-01-15T08:20:38;0.96;97.21
66096;SHT31;53861;53.422;14.530;2024-01-15T08:23:06;1.02;97.23
66096;SHT31;53861;53.422;14.530;2024-01-15T08:25:34;0.96;97.39
66096;SHT31;53861;53.422;14.530;2024-01-15T08:28:02;0.89;97.56
66096;SHT31;53861;53.422;14.530;2024-01-15T08:30:29;0.58;99.99
66096;SHT31;53861;53.422;14.530;2024-01-15T08:32:57;0.57;99.99
66096;SHT31;53861;53.422;14.530;2024-01-15T08:35:25;0.68;99.99
66096;SHT31;53861;53.422;14.530;2024-01-15T08:37:52;0.68;99.99
66096;SHT31;53861;53.422;14.530;2024-01-15T08:40:20;0.76;99.41
66096;SHT31;53861;53.422;14.530;2024-01-15T08:42:48;0.89;99.43
66096;SHT31;53861;53.422;14.530;2024-01-15T08:45:16;0.95;97.27
66096;SHT31;53861;53.422;14.530;2024-01-15T08:47:43;1.17;96.76
66096;SHT31;53861;53.422;14.530;2024-01-15T08:50:10;1.20;96.93
66096;SHT31;53861;53.422;14.530;2024-01-15T08:52:38;1.20;94.09
66096;SHT31;53861;53.422;14.530;2024-01-15T08:55:04;1.27;93.68
66096;SHT31;53861;53.422;14.530;2024-01-15T08:57:33;1.33;91.52
66096;SHT31;53861;53.422;14.530;2024-01-15T09:00:02;1.46;89.62
66096;SHT31;53861;53.422;14.530;2024-01-15T09:02:34;0.90;95.36
66096;SHT31;53861;53.422;14.530;2024-01-15T09:05:01;1.06;91.40
66096;SHT31;53861;53.422;14.530;2024-01-15T09:07:30;1.31;89.34
66096;SHT31;53861;53.422;14.530;2024-01-15T09:09:57;1.10;92.48
66096;SHT31;53861;53.422;14.530;2024-01-15T09:12:25;1.29;88.61
66096;SHT31;53861;53.422;14.530;2024-01-15T09:14:52;1.37;86.80
66096;SHT31;53861;53.422;14.530;2024-01-15T09:17:21;1.46;83.60
66096;SHT31;53861;53.422;14.530;2024-01-15T09:19:50;1.57;84.95
66096;SHT31;53861;53.422;14.530;2024-01-15T09:22:17;0.95;94.82
66096;SHT31;53861;53.422;14.530;2024-01-15T09:24:44;1.02;91.67
66096;SHT31;53861;53.422;14.530;2024-01-15T09:27:12;1.33;84.91
66096;SHT31;53861;53.422;14.530;2024-01-15T09:29:39;1.51;80.81
66096;SHT31;53861;53.422;14.530;2024-01-15T09:32:08;1.65;80.73
66096;SHT31;53861;53.422;14.530;2024-01-15T09:34:36;1.71;80.49
66096;SHT31;53861;53.422;14.530;2024-01-15T09:37:04;1.68;82.02
66096;SHT31;53861;53.422;14.530;2024-01-15T09:39:31;1.71;80.72
66096;SHT31;53861;53.422;14.530;2024-01-15T09:41:59;1.74;80.98
66096;SHT31;53861;53.422;14.530;2024-01-15T09:44:27;1.65;81.86
66096;SHT31;53861;53.422;14.530;2024-01-15T09:46:55;1.75;81.52
66096;SHT31;53861;53.422;14.530;2024-01-15T09:49:23;1.78;81.43
66096;SHT31;53861;53.422;14.530;2024-01-15T09:51:52;1.77;81.95
66096;SHT31;53861;53.422;14.530;2024-01-15T09:54:20;1.70;82.39
66096;SHT31;53861;53.422;14.530;2024-01-15T09:56:48;1.75;82.61
66096;SHT31;53861;53.422;14.530;2024-01-15T09:59:16;1.70;82.25
66096;SHT31;53861;53.422;14.530;2024-01-15T10:01:44;1.65;83.08
66096;SHT31;53861;53.422;14.530;2024-01-15T10:04:13;1.64;83.11
66096;SHT31;53861;53.422;14.530;2024-01-15T10:06:44;1.65;83.94
66096;SHT31;53861;53.422;14.530;2024-01-15T10:09:14;1.71;84.46
66096;SHT31;53861;53.422;14.530;2024-01-15T10:11:41;1.71;84.88
66096;SHT31;53861;53.422;14.530;2024-01-15T10:14:09;1.65;84.16
66096;SHT31;53861;53.422;14.530;2024-01-15T10:16:38;1.67;84.82
66096;SHT31;53861;53.422;14.530;2024-01-15T10:19:05;1.64;85.23
66096;SHT31;53861;53.422;14.530;2024-01-15T10:21:33;1.58;85.70
66096;SHT31;53861;53.422;14.530;2024-01-15T10:24:02;1.55;85.73
66096;SHT31;53861;53.422;14.530;2024-01-15T10:26:32;1.53;85.40
66096;SHT31;53861;53.422;14.530;2024-01-15T10:28:59;1.51;86.23
66096;SHT31;53861;53.422;14.530;2024-01-15T10:31:27;1.47;86.08
66096;SHT31;53861;53.422;14.530;2024-01-15T10:33:57;1.54;86.20
66096;SHT31;53861;53.422;14.530;2024-01-15T10:36:39;1.41;86.13
66096;SHT31;53861;53.422;14.530;2024-01-15T10:39:06;1.37;87.49
66096;SHT31;53861;53.422;14.530;2024-01-15T10:41:36;1.40;87.31
66096;SHT31;53861;53.422;14.530;2024-01-15T10:44:03;1.40;86.60
66096;SHT31;53861;53.422;14.530;2024-01-15T10:46:31;1.36;86.89
66096;SHT31;53861;53.422;14.530;2024-01-15T10:48:59;1.34;87.11
66096;SHT31;53861;53.422;14.530;2024-01-15T10:51:27;1.41;87.74
66096;SHT31;53861;53.422;14.530;2024-01-15T10:53:55;1.46;86.75
66096;SHT31;53861;53.422;14.530;2024-01-15T10:56:23;1.43;86.72
66096;SHT31;53861;53.422;14.530;2024-01-15T10:58:54;1.50;86.60
66096;SHT31;53861;53.422;14.530;2024-01-15T11:01:21;1.57;86.57
66096;SHT31;53861;53.422;14.530;2024-01-15T11:03:49;1.47;86.19
66096;SHT31;53861;53.422;14.530;2024-01-15T11:06:17;1.46;86.11
66096;SHT31;53861;53.422;14.530;2024-01-15T11:08:46;1.41;86.50
66096;SHT31;53861;53.422;14.530;2024-01-15T11:11:16;1.34;87.22
66096;SHT31;53861;53.422;14.530;2024-01-15T11:13:43;1.02;94.67
66096;SHT31;53861;53.422;14.530;2024-01-15T11:16:14;1.04;90.23
66096;SHT31;53861;53.422;14.530;2024-01-15T11:18:43;1.39;88.60
66096;SHT31;53861;53.422;14.530;2024-01-15T11:21:20;2.25;86.38
66096;SHT31;53861;53.422;14.530;2024-01-15T11:23:50;2.05;87.69
66096;SHT31;53861;53.422;14.530;2024-01-15T11:26:31;2.36;85.16
66096;SHT31;53861;53.422;14.530;2024-01-15T11:29:00;1.91;86.14
66096;SHT31;53861;53.422;14.530;2024-01-15T11:31:57;1.85;85.24
66096;SHT31;53861;53.422;14.530;2024-01-15T11:34:50;1.68;85.80
66096;SHT31;53861;53.422;14.530;2024-01-15T11:37:17;1.41;86.24
66096;SHT31;53861;53.422;14.530;2024-01-15T11:39:45;1.46;86.08
66096;SHT31;53861;53.422;14.530;2024-01-15T11:42:14;1.46;86.08
66096;SHT31;53861;53.422;14.530;2024-01-15T11:44:44;1.34;85.53
66096;SHT31;53861;53.422;14.530;2024-01-15T11:47:13;1.30;85.10
66096;SHT31;53861;53.422;14.530;2024-01-15T11:49:59;1.34;84.42
66096;SHT31;53861;53.422;14.530;2024-01-15T11:52:32;1.37;84.51
66096;SHT31;53861;53.422;14.530;2024-01-15T11:55:06;1.31;84.40
66096;SHT31;53861;53.422;14.530;2024-01-15T11:57:41;1.27;84.55
66096;SHT31;53861;53.422;14.530;2024-01-15T12:00:10;1.24;84.72
66096;SHT31;53861;53.422;14.530;2024-01-15T12:02:40;1.29;84.26
66096;SHT31;53861;53.422;14.530;2024-01-15T12:05:08;1.29;84.65
66096;SHT31;53861;53.422;14.530;2024-01-15T12:07:36;1.36;84.59
66096;SHT31;53861;53.422;14.530;2024-01-15T12:10:08;1.44;84.13
66096;SHT31;53861;53.422;14.530;2024-01-15T12:12:45;1.53;83.65
66096;SHT31;53861;53.422;14.530;2024-01-15T12:15:14;1.77;82.90
66096;SHT31;53861;53.422;14.530;2024-01-15T12:17:43;1.78;83.50
66096;SHT31;53861;53.422;14.530;2024-01-15T12:20:11;1.79;82.79
66096;SHT31;53861;53.422;14.530;2024-01-15T12:22:38;2.57;81.03
66096;SHT31;53861;53.422;14.530;2024-01-15T12:25:06;2.36;80.11
66096;SHT31;53861;53.422;14.530;2024-01-15T12:27:34;2.12;82.06
66096;SHT31;53861;53.422;14.530;2024-01-15T12:30:02;1.65;82.30
66096;SHT31;53861;53.422;14.530;2024-01-15T12:32:30;1.33;81.37
66096;SHT31;53861;53.422;14.530;2024-01-15T12:34:58;1.29;82.68
66096;SHT31;53861;53.422;14.530;2024-01-15T12:37:27;1.54;82.60
66096;SHT31;53861;53.422;14.530;2024-01-15T12:39:56;1.41;80.73
66096;SHT31;53861;53.422;14.530;2024-01-15T12:42:27;1.34;80.38
66096;SHT31;53861;53.422;14.530;2024-01-15T12:44:56;1.03;80.65
66096;SHT31;53861;53.422;14.530;2024-01-15T12:47:23;1.09;80.48
66096;SHT31;53861;53.422;14.530;2024-01-15T12:49:51;1.16;79.43
66096;SHT31;53861;53.422;14.530;2024-01-15T12:52:21;1.04;79.02
66096;SHT31;53861;53.422;14.530;2024-01-15T12:54:49;0.92;79.14
66096;SHT31;53861;53.422;14.530;2024-01-15T12:57:17;0.96;79.20
66096;SHT31;53861;53.422;14.530;2024-01-15T12:59:45;0.99;78.52
66096;SHT31;53861;53.422;14.530;2024-01-15T13:02:12;0.95;79.01
66096;SHT31;53861;53.422;14.530;2024-01-15T13:04:40;0.88;78.95
66096;SHT31;53861;53.422;14.530;2024-01-15T13:07:08;0.92;79.38
66096;SHT31;53861;53.422;14.530;2024-01-15T13:09:36;0.83;78.81
66096;SHT31;53861;53.422;14.530;2024-01-15T13:12:04;0.86;79.01
66096;SHT31;53861;53.422;14.530;2024-01-15T13:14:32;0.86;78.79
66096;SHT31;53861;53.422;14.530;2024-01-15T13:16:59;0.83;79.42
66096;SHT31;53861;53.422;14.530;2024-01-15T13:19:27;0.80;79.05
66096;SHT31;53861;53.422;14.530;2024-01-15T13:21:54;0.73;78.72
66096;SHT31;53861;53.422;14.530;2024-01-15T13:24:21;0.72;79.05
66096;SHT31;53861;53.422;14.530;2024-01-15T13:26:50;0.73;79.84
66096;SHT31;53861;53.422;14.530;2024-01-15T13:29:18;0.72;79.61
66096;SHT31;53861;53.422;14.530;2024-01-15T13:31:45;0.69;80.12
66096;SHT31;53861;53.422;14.530;2024-01-15T13:34:13;0.72;79.74
66096;SHT31;53861;53.422;14.530;2024-01-15T13:36:40;0.70;79.39
66096;SHT31;53861;53.422;14.530;2024-01-15T13:39:08;0.69;80.00
66096;SHT31;53861;53.422;14.530;2024-01-15T13:41:35;0.65;80.25
66096;SHT31;53861;53.422;14.530;2024-01-15T13:44:04;0.68;79.90
66096;SHT31;53861;53.422;14.530;2024-01-15T13:46:31;0.64;79.25
66096;SHT31;53861;53.422;14.530;2024-01-15T13:48:59;0.68;79.60
66096;SHT31;53861;53.422;14.530;2024-01-15T13:51:28;0.61;79.41
66096;SHT31;53861;53.422;14.530;2024-01-15T13:53:55;0.66;79.40
66096;SHT31;53861;53.422;14.530;2024-01-15T13:56:23;0.64;79.24
66096;SHT31;53861;53.422;14.530;2024-01-15T13:58:50;0.69;79.81
66096;SHT31;53861;53.422;14.530;2024-01-15T14:01:19;0.59;79.85
66096;SHT31;53861;53.422;14.530;2024-01-15T14:03:47;0.65;79.84
66096;SHT31;53861;53.422;14.530;2024-01-15T14:06:14;0.64;79.87
66096;SHT31;53861;53.422;14.530;2024-01-15T14:08:41;0.65;79.65
66096;SHT31;53861;53.422;14.530;2024-01-15T14:11:08;0.58;79.98
66096;SHT31;53861;53.422;14.530;2024-01-15T14:13:36;0.55;79.17
66096;SHT31;53861;53.422;14.530;2024-01-15T14:16:03;0.55;80.12
66096;SHT31;53861;53.422;14.530;2024-01-15T14:18:32;0.57;80.15
66096;SHT31;53861;53.422;14.530;2024-01-15T14:20:59;0.57;80.71
66096;SHT31;53861;53.422;14.530;2024-01-15T14:23:27;0.58;80.51
66096;SHT31;53861;53.422;14.530;2024-01-15T14:25:54;0.54;80.59
66096;SHT31;53861;53.422;14.530;2024-01-15T14:28:21;0.51;80.63
66096;SHT31;53861;53.422;14.530;2024-01-15T14:30:49;0.47;80.69
66096;SHT31;53861;53.422;14.530;2024-01-15T14:33:17;0.48;81.82
66096;SHT31;53861;53.422;14.530;2024-01-15T14:35:46;0.54;81.51
66096;SHT31;53861;53.422;14.530;2024-01-15T14:38:13;0.51;82.05
66096;SHT31;53861;53.422;14.530;2024-01-15T14:40:40;0.57;82.73
66096;SHT31;53861;53.422;14.530;2024-01-15T14:43:10;0.57;82.69
66096;SHT31;53861;53.422;14.530;2024-01-15T14:45:37;0.47;81.86
66096;SHT31;53861;53.422;14.530;2024-01-15T14:48:04;0.44;81.97
66096;SHT31;53861;53.422;14.530;2024-01-15T14:50:32;0.38;82.18
66096;SHT31;53861;53.422;14.530;2024-01-15T14:53:00;0.34;82.44
66096;SHT31;53861;53.422;14.530;2024-01-15T14:55:28;0.34;82.25
66096;SHT31;53861;53.422;14.530;2024-01-15T14:57:55;0.37;81.59
66096;SHT31;53861;53.422;14.530;2024-01-15T15:00:22;0.22;79.90
66096;SHT31;53861;53.422;14.530;2024-01-15T15:02:50;0.18;78.05
66096;SHT31;53861;53.422;14.530;2024-01-15T15:05:17;0.18;77.22
66096;SHT31;53861;53.422;14.530;2024-01-15T15:07:44;0.18;76.84
66096;SHT31;53861;53.422;14.530;2024-01-15T15:10:13;0.15;77.05
66096;SHT31;53861;53.422;14.530;2024-01-15T15:12:40;0.19;75.72
66096;SHT31;53861;53.422;14.530;2024-01-15T15:15:08;0.17;76.65
66096;SHT31;53861;53.422;14.530;2024-01-15T15:17:37;0.15;75.61
66096;SHT31;53861;53.422;14.530;2024-01-15T15:20:05;0.13;76.11
66096;SHT31;53861;53.422;14.530;2024-01-15T15:22:33;0.13;75.86
66096;SHT31;53861;53.422;14.530;2024-01-15T15:25:00;0.13;75.97
66096;SHT31;53861;53.422;14.530;2024-01-15T15:27:29;0.13;75.71
66096;SHT31;53861;53.422;14.530;2024-01-15T15:29:56;0.11;75.83
66096;SHT31;53861;53.422;14.530;2024-01-15T15:32:23;0.17;76.82
66096;SHT31;53861;53.422;14.530;2024-01-15T15:34:50;0.13;77.12
66096;SHT31;53861;53.422;14.530;2024-01-15T15:37:18;0.08;76.89
66096;SHT31;53861;53.422;14.530;2024-01-15T15:39:45;0.11;77.18
66096;SHT31;53861;53.422;14.530;2024-01-15T15:42:12;0.10;76.90
66096;SHT31;53861;53.422;14.530;2024-01-15T15:44:41;0.08;77.25
66096;SHT31;53861;53.422;14.530;2024-01-15T15:47:12;0.08;77.30
66096;SHT31;53861;53.422;14.530;2024-01-15T15:49:40;0.06;77.75
66096;SHT31;53861;53.422;14.530;2024-01-15T15:52:08;0.06;77.70
66096;SHT31;53861;53.422;14.530;2024-01-15T15:54:36;0.04;77.52
66096;SHT31;53861;53.422;14.530;2024-01-15T15:57:03;0.06;77.78
66096;SHT31;53861;53.422;14.530;2024-01-15T15:59:31;0.04;77.58
66096;SHT31;53861;53.422;14.530;2024-01-15T16:01:59;0.01;78.34
66096;SHT31;53861;53.422;14.530;2024-01-15T16:04:27;0.01;78.76
66096;SHT31;53861;53.422;14.530;2024-01-15T16:06:54;-0.04;77.92